createdAt,value
2018-08-18T00:00:20.880Z,101306.00
2018-08-18T00:02:49.735Z,101309.00
2018-08-18T00:05:18.919Z,101312.00
2018-08-18T00:07:48.113Z,101306.00
2018-08-18T00:10:19.611Z,101299.00
2018-08-18T00:12:48.517Z,101304.00
2018-08-18T00:15:17.416Z,101308.00
2018-08-18T00:17:46.291Z,101310.00
2018-08-18T00:20:19.188Z,101323.00
2018-08-18T00:22:48.360Z,101327.00
2018-08-18T00:25:17.204Z,101328.00
2018-08-18T00:27:46.088Z,101333.00
2018-08-18T00:30:20.294Z,101341.00
2018-08-18T00:32:49.147Z,101339.00
2018-08-18T00:35:18.026Z,101344.00
2018-08-18T00:37:46.868Z,101349.00
2018-08-18T00:40:15.699Z,101347.00
2018-08-18T00:42:44.513Z,101359.00
2018-08-18T00:45:14.000Z,101352.00
2018-08-18T00:47:42.828Z,101361.00
2018-08-18T00:50:13.498Z,101361.00
2018-08-18T00:52:42.349Z,101352.00
2018-08-18T00:55:11.246Z,101350.00
2018-08-18T00:57:40.181Z,101359.00
2018-08-18T01:00:09.049Z,101359.00
2018-08-18T01:02:37.874Z,101352.00
2018-08-18T01:05:06.723Z,101344.00
2018-08-18T01:07:35.546Z,101347.00
2018-08-18T01:10:04.448Z,101346.00
2018-08-18T01:12:34.402Z,101355.00
2018-08-18T01:15:03.177Z,101366.00
2018-08-18T01:17:32.036Z,101371.00
2018-08-18T01:20:00.881Z,101376.00
2018-08-18T01:22:29.738Z,101383.00
2018-08-18T01:24:58.617Z,101379.00
2018-08-18T01:27:27.485Z,101387.00
2018-08-18T01:30:01.881Z,101392.00
2018-08-18T01:32:31.734Z,101385.00
2018-08-18T01:35:00.553Z,101393.00
2018-08-18T01:37:31.435Z,101397.00
2018-08-18T01:40:00.486Z,101396.00
2018-08-18T01:42:32.151Z,101390.00
2018-08-18T01:45:01.107Z,101396.00
2018-08-18T01:47:30.240Z,101392.00
2018-08-18T01:50:06.269Z,101394.00
2018-08-18T01:52:37.531Z,101396.00
2018-08-18T01:55:07.989Z,101390.00
2018-08-18T01:57:36.806Z,101388.00
2018-08-18T02:00:24.370Z,101381.00
2018-08-18T02:02:53.207Z,101381.00
2018-08-18T02:05:22.068Z,101380.00
2018-08-18T02:07:50.874Z,101376.00
2018-08-18T02:10:19.756Z,101382.00
2018-08-18T02:13:03.223Z,101383.00
2018-08-18T02:15:32.622Z,101388.00
2018-08-18T02:18:01.511Z,101388.00
2018-08-18T02:20:30.358Z,101387.00
2018-08-18T02:22:59.192Z,101387.00
2018-08-18T02:25:28.006Z,101392.00
2018-08-18T02:27:56.890Z,101395.00
2018-08-18T02:30:25.781Z,101407.00
2018-08-18T02:32:54.674Z,101402.00
2018-08-18T02:35:23.901Z,101397.00
2018-08-18T02:37:52.915Z,101402.00
2018-08-18T02:40:21.770Z,101394.00
2018-08-18T02:42:50.632Z,101400.00
2018-08-18T02:45:19.539Z,101403.00
2018-08-18T02:47:49.335Z,101409.00
2018-08-18T02:50:18.197Z,101398.00
2018-08-18T02:52:47.061Z,101392.00
2018-08-18T02:55:15.894Z,101401.00
2018-08-18T02:57:45.007Z,101401.00
2018-08-18T03:00:23.984Z,101408.00
2018-08-18T03:02:52.851Z,101411.00
2018-08-18T03:05:21.751Z,101403.00
2018-08-18T03:07:51.794Z,101400.00
2018-08-18T03:10:24.528Z,101397.00
2018-08-18T03:12:59.475Z,101389.00
2018-08-18T03:16:07.363Z,101397.00
2018-08-18T03:18:39.227Z,101410.00
2018-08-18T03:21:08.164Z,101411.00
2018-08-18T03:23:36.981Z,101418.00
2018-08-18T03:26:05.835Z,101421.00
2018-08-18T03:28:42.080Z,101430.00
2018-08-18T03:31:10.979Z,101441.00
2018-08-18T03:33:39.816Z,101433.00
2018-08-18T03:36:41.493Z,101430.00
2018-08-18T03:39:22.190Z,101413.00
2018-08-18T03:41:52.787Z,101413.00
2018-08-18T03:44:21.660Z,101401.00
2018-08-18T03:46:50.539Z,101403.00
2018-08-18T03:49:19.664Z,101411.00
2018-08-18T03:51:53.460Z,101405.00
2018-08-18T03:54:22.320Z,101418.00
2018-08-18T03:56:51.552Z,101422.00
2018-08-18T03:59:20.373Z,101422.00
2018-08-18T04:01:53.419Z,101422.00
2018-08-18T04:04:23.328Z,101416.00
2018-08-18T04:06:53.472Z,101415.00
2018-08-18T04:09:39.382Z,101414.00
2018-08-18T04:12:09.538Z,101418.00
2018-08-18T04:14:42.637Z,101414.00
2018-08-18T04:17:29.573Z,101408.00
2018-08-18T04:19:58.465Z,101415.00
2018-08-18T04:22:27.342Z,101411.00
2018-08-18T04:24:56.644Z,101405.00
2018-08-18T04:27:40.933Z,101400.00
2018-08-18T04:30:15.296Z,101403.00
2018-08-18T04:32:55.426Z,101399.00
2018-08-18T04:35:25.314Z,101408.00
2018-08-18T04:37:54.798Z,101408.00
2018-08-18T04:40:24.087Z,101406.00
2018-08-18T04:42:52.975Z,101400.00
2018-08-18T04:45:22.861Z,101411.00
2018-08-18T04:47:51.708Z,101408.00
2018-08-18T04:50:22.331Z,101409.00
2018-08-18T04:52:52.276Z,101403.00
2018-08-18T04:55:21.249Z,101403.00
2018-08-18T04:57:50.164Z,101405.00
2018-08-18T05:00:19.085Z,101405.00
2018-08-18T05:02:56.910Z,101416.00
2018-08-18T05:05:28.446Z,101409.00
2018-08-18T05:07:59.538Z,101408.00
2018-08-18T05:10:28.609Z,101405.00
2018-08-18T05:12:57.466Z,101401.00
2018-08-18T05:15:26.308Z,101410.00
2018-08-18T05:17:55.236Z,101402.00
2018-08-18T05:20:25.763Z,101397.00
2018-08-18T05:22:54.603Z,101414.00
2018-08-18T05:25:29.633Z,101413.00
2018-08-18T05:27:58.926Z,101415.00
2018-08-18T05:30:27.791Z,101412.00
2018-08-18T05:32:56.694Z,101423.00
2018-08-18T05:35:25.620Z,101418.00
2018-08-18T05:37:54.497Z,101410.00
2018-08-18T05:40:23.352Z,101411.00
2018-08-18T05:42:52.260Z,101417.00
2018-08-18T05:45:40.211Z,101412.00
2018-08-18T05:48:09.176Z,101416.00
2018-08-18T05:50:38.010Z,101422.00
2018-08-18T05:53:22.724Z,101419.00
2018-08-18T05:55:51.606Z,101427.00
2018-08-18T05:58:20.467Z,101424.00
2018-08-18T06:00:50.783Z,101430.00
2018-08-18T06:03:21.778Z,101426.00
2018-08-18T06:05:50.814Z,101426.00
2018-08-18T06:08:19.560Z,101421.00
2018-08-18T06:10:48.476Z,101426.00
2018-08-18T06:13:20.127Z,101428.00
2018-08-18T06:16:07.305Z,101430.00
2018-08-18T06:18:37.939Z,101433.00
2018-08-18T06:21:07.412Z,101437.00
2018-08-18T06:23:37.865Z,101446.00
2018-08-18T06:26:07.368Z,101440.00
2018-08-18T06:28:36.216Z,101451.00
2018-08-18T06:31:05.186Z,101444.00
2018-08-18T06:33:34.143Z,101446.00
2018-08-18T06:36:03.425Z,101444.00
2018-08-18T06:38:32.274Z,101447.00
2018-08-18T06:41:02.504Z,101444.00
2018-08-18T06:43:34.222Z,101463.00
2018-08-18T06:46:03.532Z,101458.00
2018-08-18T06:48:34.520Z,101460.00
2018-08-18T06:51:03.567Z,101473.00
2018-08-18T06:53:37.986Z,101475.00
2018-08-18T06:56:07.644Z,101480.00
2018-08-18T06:58:36.852Z,101481.00
2018-08-18T07:01:06.368Z,101485.00
2018-08-18T07:03:37.500Z,101482.00
2018-08-18T07:06:07.479Z,101482.00
2018-08-18T07:08:41.883Z,101483.00
2018-08-18T07:11:11.486Z,101484.00
2018-08-18T07:13:40.996Z,101489.00
2018-08-18T07:16:13.809Z,101487.00
2018-08-18T07:21:57.996Z,101501.00
2018-08-18T07:24:26.870Z,101506.00
2018-08-18T07:26:55.779Z,101499.00
2018-08-18T07:29:24.639Z,101505.00
2018-08-18T07:31:53.438Z,101508.00
2018-08-18T07:34:22.397Z,101504.00
2018-08-18T07:36:51.302Z,101504.00
2018-08-18T07:39:20.186Z,101513.00
2018-08-18T07:41:49.052Z,101515.00
2018-08-18T07:44:17.896Z,101520.00
2018-08-18T07:46:46.878Z,101512.00
2018-08-18T07:49:15.726Z,101525.00
2018-08-18T07:51:44.662Z,101527.00
2018-08-18T07:54:13.493Z,101532.00
2018-08-18T07:56:42.324Z,101536.00
2018-08-18T07:59:11.188Z,101529.00
2018-08-18T08:01:40.045Z,101519.00
2018-08-18T08:04:08.879Z,101531.00
2018-08-18T08:06:37.820Z,101542.00
2018-08-18T08:09:07.143Z,101541.00
2018-08-18T08:11:35.988Z,101541.00
2018-08-18T08:14:04.944Z,101543.00
2018-08-18T08:16:33.779Z,101544.00
2018-08-18T08:19:02.653Z,101540.00
2018-08-18T08:21:31.487Z,101548.00
2018-08-18T08:24:00.299Z,101549.00
2018-08-18T08:26:29.169Z,101541.00
2018-08-18T08:28:58.024Z,101543.00
2018-08-18T08:31:26.858Z,101543.00
2018-08-18T08:33:55.739Z,101551.00
2018-08-18T08:36:25.459Z,101536.00
2018-08-18T08:38:58.750Z,101545.00
2018-08-18T08:41:31.097Z,101541.00
2018-08-18T08:44:00.112Z,101546.00
2018-08-18T08:46:28.872Z,101540.00
2018-08-18T08:49:00.241Z,101543.00
2018-08-18T08:51:28.951Z,101552.00
2018-08-18T08:53:58.996Z,101541.00
2018-08-18T08:56:32.897Z,101540.00
2018-08-18T08:59:01.721Z,101544.00
2018-08-18T09:01:31.171Z,101539.00
2018-08-18T09:03:59.845Z,101547.00
2018-08-18T09:06:28.568Z,101539.00
2018-08-18T09:08:58.995Z,101547.00
2018-08-18T09:11:28.876Z,101546.00
2018-08-18T09:14:03.598Z,101555.00
2018-08-18T09:16:33.999Z,101549.00
2018-08-18T09:19:02.735Z,101545.00
2018-08-18T09:21:38.754Z,101546.00
2018-08-18T09:24:07.413Z,101545.00
2018-08-18T09:26:41.865Z,101546.00
2018-08-18T09:29:11.346Z,101544.00
2018-08-18T09:31:40.370Z,101551.00
2018-08-18T09:34:09.133Z,101543.00
2018-08-18T09:36:37.821Z,101546.00
2018-08-18T09:39:10.066Z,101554.00
2018-08-18T09:41:39.002Z,101550.00
2018-08-18T09:44:09.902Z,101551.00
2018-08-18T09:46:38.623Z,101550.00
2018-08-18T09:49:07.285Z,101558.00
2018-08-18T09:51:35.973Z,101552.00
2018-08-18T09:54:04.655Z,101546.00
2018-08-18T09:56:33.323Z,101547.00
2018-08-18T09:59:01.995Z,101558.00
2018-08-18T10:01:30.729Z,101560.00
2018-08-18T10:03:59.432Z,101562.00
2018-08-18T10:06:28.171Z,101558.00
2018-08-18T10:08:56.778Z,101552.00
2018-08-18T10:11:25.412Z,101557.00
2018-08-18T10:13:54.098Z,101559.00
2018-08-18T10:16:23.176Z,101551.00
2018-08-18T10:18:51.897Z,101560.00
2018-08-18T10:21:20.592Z,101565.00
2018-08-18T10:23:49.267Z,101561.00
2018-08-18T10:26:18.111Z,101564.00
2018-08-18T10:28:46.959Z,101567.00
2018-08-18T10:31:15.752Z,101567.00
2018-08-18T10:33:44.609Z,101558.00
2018-08-18T10:36:14.002Z,101562.00
2018-08-18T10:38:42.858Z,101558.00
2018-08-18T10:41:11.716Z,101551.00
2018-08-18T10:43:40.546Z,101560.00
2018-08-18T10:46:09.412Z,101559.00
2018-08-18T10:48:38.617Z,101565.00
2018-08-18T10:51:26.505Z,101565.00
2018-08-18T10:53:55.362Z,101564.00
2018-08-18T10:56:24.560Z,101564.00
2018-08-18T10:59:13.834Z,101555.00
2018-08-18T11:02:31.166Z,101559.00
2018-08-18T11:05:00.180Z,101563.00
2018-08-18T11:07:29.045Z,101558.00
2018-08-18T11:09:57.957Z,101557.00
2018-08-18T11:12:26.816Z,101558.00
2018-08-18T11:14:58.850Z,101561.00
2018-08-18T11:17:28.847Z,101554.00
2018-08-18T11:20:01.932Z,101554.00
2018-08-18T11:23:09.304Z,101545.00
2018-08-18T11:25:43.746Z,101546.00
2018-08-18T11:28:13.311Z,101560.00
2018-08-18T11:30:42.308Z,101549.00
2018-08-18T11:33:11.704Z,101550.00
2018-08-18T11:35:40.528Z,101548.00
2018-08-18T11:38:11.415Z,101555.00
2018-08-18T11:40:40.288Z,101547.00
2018-08-18T11:43:11.705Z,101549.00
2018-08-18T11:45:41.486Z,101540.00
2018-08-18T11:48:12.716Z,101543.00
2018-08-18T11:50:41.837Z,101540.00
2018-08-18T11:53:10.669Z,101539.00
2018-08-18T11:55:39.788Z,101541.00
2018-08-18T11:58:11.226Z,101543.00
2018-08-18T12:00:43.523Z,101540.00
2018-08-18T12:03:14.565Z,101535.00
2018-08-18T12:05:49.082Z,101537.00
2018-08-18T12:08:20.187Z,101530.00
2018-08-18T12:10:50.166Z,101527.00
2018-08-18T12:13:21.504Z,101521.00
2018-08-18T12:16:02.051Z,101524.00
2018-08-18T12:18:32.060Z,101528.00
2018-08-18T12:21:03.212Z,101530.00
2018-08-18T12:23:33.943Z,101527.00
2018-08-18T12:26:07.953Z,101529.00
2018-08-18T12:28:42.812Z,101522.00
2018-08-18T12:31:13.607Z,101519.00
2018-08-18T12:33:42.573Z,101512.00
2018-08-18T12:36:11.452Z,101512.00
2018-08-18T12:38:47.985Z,101511.00
2018-08-18T12:41:16.861Z,101513.00
2018-08-18T12:43:49.699Z,101508.00
2018-08-18T12:46:19.720Z,101506.00
2018-08-18T12:48:49.911Z,101503.00
2018-08-18T12:51:19.421Z,101502.00
2018-08-18T12:53:50.200Z,101499.00
2018-08-18T12:56:22.722Z,101491.00
2018-08-18T12:58:51.748Z,101494.00
2018-08-18T13:01:41.200Z,101493.00
2018-08-18T13:04:17.013Z,101498.00
2018-08-18T13:06:47.397Z,101489.00
2018-08-18T13:09:18.389Z,101487.00
2018-08-18T13:11:49.028Z,101478.00
2018-08-18T13:14:19.913Z,101477.00
2018-08-18T13:16:49.030Z,101480.00
2018-08-18T13:19:20.265Z,101496.00
2018-08-18T13:21:49.129Z,101491.00
2018-08-18T13:24:18.002Z,101493.00
2018-08-18T13:26:46.992Z,101486.00
2018-08-18T13:29:15.767Z,101489.00
2018-08-18T13:31:45.249Z,101487.00
2018-08-18T13:34:15.365Z,101474.00
2018-08-18T13:36:45.180Z,101476.00
2018-08-18T13:39:19.448Z,101463.00
2018-08-18T13:41:49.382Z,101464.00
2018-08-18T13:44:29.437Z,101459.00
2018-08-18T13:46:58.362Z,101453.00
2018-08-18T13:49:27.757Z,101458.00
2018-08-18T13:51:56.632Z,101458.00
2018-08-18T13:54:25.577Z,101447.00
2018-08-18T13:56:54.472Z,101447.00
2018-08-18T13:59:41.690Z,101450.00
2018-08-18T14:02:11.176Z,101457.00
2018-08-18T14:04:42.096Z,101454.00
2018-08-18T14:07:11.664Z,101457.00
2018-08-18T14:09:47.445Z,101456.00
2018-08-18T14:12:17.484Z,101465.00
2018-08-18T14:14:47.261Z,101443.00
2018-08-18T14:17:18.230Z,101441.00
2018-08-18T14:19:47.113Z,101443.00
2018-08-18T14:22:19.430Z,101439.00
2018-08-18T14:24:48.349Z,101455.00
2018-08-18T14:27:21.031Z,101453.00
2018-08-18T14:29:49.911Z,101452.00
2018-08-18T14:32:24.081Z,101450.00
2018-08-18T14:34:58.536Z,101447.00
2018-08-18T14:37:27.446Z,101442.00
2018-08-18T14:39:56.312Z,101445.00
2018-08-18T14:42:25.280Z,101441.00
2018-08-18T14:44:56.965Z,101451.00
2018-08-18T14:47:25.900Z,101451.00
2018-08-18T14:50:28.689Z,101452.00
2018-08-18T14:52:57.667Z,101451.00
2018-08-18T14:55:26.544Z,101439.00
2018-08-18T14:58:00.862Z,101437.00
2018-08-18T15:00:29.738Z,101437.00
2018-08-18T15:02:58.676Z,101432.00
2018-08-18T15:05:27.557Z,101431.00
2018-08-18T15:07:57.404Z,101426.00
2018-08-18T15:10:41.875Z,101425.00
2018-08-18T15:13:11.432Z,101419.00
2018-08-18T15:15:40.439Z,101420.00
2018-08-18T15:18:11.633Z,101416.00
2018-08-18T15:20:41.109Z,101421.00
2018-08-18T15:23:10.681Z,101419.00
2018-08-18T15:25:40.381Z,101422.00
2018-08-18T15:28:10.951Z,101420.00
2018-08-18T15:30:40.960Z,101416.00
2018-08-18T15:33:10.974Z,101413.00
2018-08-18T15:35:40.794Z,101417.00
2018-08-18T15:38:10.373Z,101408.00
2018-08-18T15:40:39.290Z,101405.00
2018-08-18T15:43:08.154Z,101401.00
2018-08-18T15:45:59.184Z,101409.00
2018-08-18T15:48:28.254Z,101400.00
2018-08-18T15:50:57.144Z,101394.00
2018-08-18T15:53:50.099Z,101401.00
2018-08-18T15:56:19.934Z,101400.00
2018-08-18T15:58:49.494Z,101409.00
2018-08-18T16:01:19.381Z,101405.00
2018-08-18T16:03:48.340Z,101403.00
2018-08-18T16:06:17.264Z,101393.00
2018-08-18T16:08:46.354Z,101392.00
2018-08-18T16:11:15.701Z,101391.00
2018-08-18T16:13:44.951Z,101395.00
2018-08-18T16:16:14.049Z,101396.00
2018-08-18T16:18:43.124Z,101393.00
2018-08-18T16:21:17.641Z,101388.00
2018-08-18T16:23:46.789Z,101384.00
2018-08-18T16:26:15.775Z,101383.00
2018-08-18T16:28:44.832Z,101382.00
2018-08-18T16:31:14.183Z,101380.00
2018-08-18T16:33:43.537Z,101380.00
2018-08-18T16:36:12.631Z,101379.00
2018-08-18T16:38:41.746Z,101385.00
2018-08-18T16:41:10.907Z,101385.00
2018-08-18T16:43:40.003Z,101390.00
2018-08-18T16:46:21.872Z,101385.00
2018-08-18T16:48:51.785Z,101381.00
2018-08-18T16:51:21.092Z,101392.00
2018-08-18T16:53:50.195Z,101388.00
2018-08-18T16:56:29.524Z,101385.00
2018-08-18T16:59:00.742Z,101385.00
2018-08-18T17:01:30.091Z,101389.00
2018-08-18T17:03:59.294Z,101385.00
2018-08-18T17:06:28.678Z,101381.00
2018-08-18T17:08:58.658Z,101384.00
2018-08-18T17:11:27.879Z,101387.00
2018-08-18T17:13:59.684Z,101378.00
2018-08-18T17:16:29.000Z,101382.00
2018-08-18T17:18:58.463Z,101379.00
2018-08-18T17:21:28.148Z,101387.00
2018-08-18T17:23:57.597Z,101381.00
2018-08-18T17:26:27.226Z,101383.00
2018-08-18T17:28:56.845Z,101378.00
2018-08-18T17:31:26.202Z,101377.00
2018-08-18T17:33:55.682Z,101376.00
2018-08-18T17:36:25.163Z,101379.00
2018-08-18T17:38:54.525Z,101386.00
2018-08-18T17:41:23.902Z,101381.00
2018-08-18T17:43:53.308Z,101383.00
2018-08-18T17:46:22.641Z,101392.00
2018-08-18T17:48:53.986Z,101395.00
2018-08-18T17:54:23.443Z,101406.00
2018-08-18T17:56:54.768Z,101410.00
2018-08-18T17:59:28.174Z,101414.00
2018-08-18T18:02:15.153Z,101418.00
2018-08-18T18:05:10.847Z,101417.00
2018-08-18T18:08:11.127Z,101415.00
2018-08-18T18:20:06.902Z,101428.00
2018-08-18T18:22:50.343Z,101429.00
2018-08-18T18:25:21.401Z,101430.00
2018-08-18T18:27:51.782Z,101432.00
2018-08-18T18:30:27.022Z,101403.00
2018-08-18T18:32:57.522Z,101438.00
2018-08-18T18:35:28.403Z,101444.00
2018-08-18T18:38:01.849Z,101447.00
2018-08-18T18:40:39.423Z,101443.00
2018-08-18T18:43:27.708Z,101453.00
2018-08-18T18:46:00.878Z,101450.00
2018-08-18T18:48:33.683Z,101448.00
2018-08-18T18:51:07.127Z,101445.00
2018-08-18T18:54:00.697Z,101456.00
2018-08-18T18:56:38.509Z,101452.00
2018-08-18T18:59:11.262Z,101455.00
2018-08-18T19:01:44.204Z,101460.00
2018-08-18T19:04:16.105Z,101456.00
2018-08-18T19:07:00.969Z,101460.00
2018-08-18T19:09:32.404Z,101466.00
2018-08-18T19:12:03.699Z,101470.00
2018-08-18T19:14:34.866Z,101468.00
2018-08-18T19:17:06.189Z,101475.00
2018-08-18T19:19:36.384Z,101471.00
2018-08-18T19:22:09.644Z,101484.00
2018-08-18T19:24:39.067Z,101471.00
2018-08-18T19:27:08.409Z,101474.00
2018-08-18T19:29:38.062Z,101474.00
2018-08-18T19:32:07.045Z,101466.00
2018-08-18T19:34:36.110Z,101468.00
2018-08-18T19:37:07.728Z,101471.00
2018-08-18T19:39:37.433Z,101473.00
2018-08-18T19:42:16.923Z,101469.00
2018-08-18T19:44:47.178Z,101468.00
2018-08-18T19:47:24.463Z,101475.00
2018-08-18T19:49:53.360Z,101472.00
2018-08-18T19:52:24.070Z,101477.00
2018-08-18T19:54:53.294Z,101473.00
2018-08-18T19:57:27.703Z,101467.00
2018-08-18T20:00:05.473Z,101469.00
2018-08-18T20:02:51.312Z,101478.00
2018-08-18T20:05:21.127Z,101473.00
2018-08-18T20:07:50.124Z,101467.00
2018-08-18T20:10:19.151Z,101466.00
2018-08-18T20:12:48.084Z,101462.00
2018-08-18T20:15:17.238Z,101465.00
2018-08-18T20:17:46.315Z,101475.00
2018-08-18T20:20:22.652Z,101468.00
2018-08-18T20:22:51.667Z,101472.00
2018-08-18T20:25:20.834Z,101468.00
2018-08-18T20:27:49.643Z,101470.00
2018-08-18T20:30:18.541Z,101477.00
2018-08-18T20:32:47.609Z,101477.00
2018-08-18T20:35:16.456Z,101472.00
2018-08-18T20:37:45.651Z,101478.00
2018-08-18T20:40:14.781Z,101474.00
2018-08-18T20:42:44.802Z,101478.00
2018-08-18T20:45:14.216Z,101476.00
2018-08-18T20:47:44.451Z,101469.00
2018-08-18T20:50:15.416Z,101468.00
2018-08-18T20:52:44.468Z,101476.00
2018-08-18T20:55:14.015Z,101469.00
2018-08-18T20:57:46.845Z,101473.00
2018-08-18T21:00:15.728Z,101476.00
2018-08-18T21:02:44.540Z,101476.00
2018-08-18T21:05:13.369Z,101479.00
2018-08-18T21:07:42.259Z,101474.00
2018-08-18T21:10:12.528Z,101472.00
2018-08-18T21:12:46.416Z,101477.00
2018-08-18T21:15:16.263Z,101471.00
2018-08-18T21:17:45.181Z,101483.00
2018-08-18T21:20:17.710Z,101478.00
2018-08-18T21:22:46.796Z,101487.00
2018-08-18T21:25:15.907Z,101488.00
2018-08-18T21:27:44.934Z,101481.00
2018-08-18T21:30:16.913Z,101481.00
2018-08-18T21:32:45.775Z,101483.00
2018-08-18T21:35:14.690Z,101486.00
2018-08-18T21:37:43.660Z,101494.00
2018-08-18T21:40:12.577Z,101484.00
2018-08-18T21:42:41.436Z,101487.00
2018-08-18T21:45:12.028Z,101483.00
2018-08-18T21:47:40.899Z,101487.00
2018-08-18T21:50:09.758Z,101488.00
2018-08-18T21:52:38.673Z,101487.00
2018-08-18T21:55:07.516Z,101482.00
2018-08-18T21:57:54.924Z,101480.00
2018-08-18T22:00:27.968Z,101483.00
2018-08-18T22:02:58.648Z,101481.00
2018-08-18T22:05:34.539Z,101482.00
2018-08-18T22:08:03.517Z,101477.00
2018-08-18T22:10:33.215Z,101483.00
2018-08-18T22:13:02.089Z,101477.00
2018-08-18T22:15:33.412Z,101485.00
2018-08-18T22:18:02.917Z,101484.00
2018-08-18T22:20:33.374Z,101484.00
2018-08-18T22:23:02.304Z,101478.00
2018-08-18T22:25:31.299Z,101482.00
2018-08-18T22:28:00.194Z,101486.00
2018-08-18T22:30:29.064Z,101485.00
2018-08-18T22:32:59.569Z,101485.00
2018-08-18T22:35:28.518Z,101485.00
2018-08-18T22:37:57.395Z,101482.00
2018-08-18T22:40:26.440Z,101488.00
2018-08-18T22:42:55.283Z,101489.00
2018-08-18T22:45:29.573Z,101482.00
2018-08-18T22:47:58.439Z,101480.00
2018-08-18T22:50:27.339Z,101481.00
2018-08-18T22:52:56.187Z,101486.00
2018-08-18T22:55:25.024Z,101489.00
2018-08-18T22:57:58.011Z,101484.00
2018-08-18T23:00:27.307Z,101490.00
2018-08-18T23:02:56.131Z,101494.00
2018-08-18T23:05:24.995Z,101495.00
2018-08-18T23:07:55.388Z,101499.00
2018-08-18T23:10:28.881Z,101495.00
2018-08-18T23:12:57.769Z,101493.00
2018-08-18T23:15:26.632Z,101492.00
2018-08-18T23:17:55.486Z,101490.00
2018-08-18T23:20:24.363Z,101490.00
2018-08-18T23:22:58.129Z,101482.00
2018-08-18T23:25:28.833Z,101489.00
2018-08-18T23:27:57.847Z,101487.00
2018-08-18T23:30:32.001Z,101484.00
2018-08-18T23:33:01.709Z,101481.00
2018-08-18T23:35:30.968Z,101472.00
2018-08-18T23:37:59.979Z,101480.00
2018-08-18T23:40:28.946Z,101483.00
2018-08-18T23:42:57.830Z,101486.00
2018-08-18T23:45:37.360Z,101481.00
2018-08-18T23:48:12.920Z,101487.00
2018-08-18T23:50:42.935Z,101498.00
2018-08-18T23:53:16.053Z,101490.00
2018-08-18T23:55:50.461Z,101497.00
2018-08-18T23:58:21.754Z,101496.00
